Pagrindinis puslapis
METAR-TAF:

METAR-TAF

Oro uostai :

Puerto Ajakučas, Venesuela

platuma: 05-36N, ilguma: 067-30W, Aukštis: 73 m

Dabartinis oras

Ataskaita buvo paskelbta 1 valandą ir 10 minutes, ne 02:02 UTC
Vėjas 2 kt iš Pietų/Pietryčių
Temperatūra 27°C
Drėgmė 89%
Slėgis 1013 hPa

METAR: SVPA 180202Z AUTO 15002KT NCD 27/25 Q1013

Laikas: 23:12 (03:12 UTC)


TAF: trūkstamas

Orai ataskaitas ir orų prognozės (METAR, TAF).

turimą stotys yra geltonos ir raudonos taškus žemėlapyje.

Perkelti pele per norėdami pamatyti stoties vardą.

Tada spustelėkite, norėdami matyti oro stebėjimo ir prognozės.

Norėdami pakeisti žemėlapį: spustelėkite ant žalios mygtukų su juodo kryžiaus žemyn,; žalią mygtuką su brūkšneliu, jei norite nutolinti; arba žalių rodyklių gretimoms žemėlapius.


METAR-TAF: